sensor_id;sensor_type;location;lat;lon;timestamp;pressure;altitude;pressure_sealevel;temperature
69590;BMP180;56792;50.644;17.984;2024-01-16T00:01:29;97915.60;;;-0.32
69590;BMP180;56792;50.644;17.984;2024-01-16T00:04:00;97909.00;;;-0.40
69590;BMP180;56792;50.644;17.984;2024-01-16T00:06:31;97921.40;;;-0.40
69590;BMP180;56792;50.644;17.984;2024-01-16T00:09:02;97922.80;;;-0.40
69590;BMP180;56792;50.644;17.984;2024-01-16T00:11:33;97924.20;;;-0.40
69590;BMP180;56792;50.644;17.984;2024-01-16T00:14:04;97920.00;;;-0.40
69590;BMP180;56792;50.644;17.984;2024-01-16T00:16:36;97926.40;;;-0.40
69590;BMP180;56792;50.644;17.984;2024-01-16T00:19:12;97920.80;;;-0.40
69590;BMP180;56792;50.644;17.984;2024-01-16T00:21:44;97923.60;;;-0.40
69590;BMP180;56792;50.644;17.984;2024-01-16T00:24:17;97930.40;;;-0.40
69590;BMP180;56792;50.644;17.984;2024-01-16T00:26:48;97931.40;;;-0.40
69590;BMP180;56792;50.644;17.984;2024-01-16T00:29:19;97930.00;;;-0.40
69590;BMP180;56792;50.644;17.984;2024-01-16T00:31:50;97929.80;;;-0.40
69590;BMP180;56792;50.644;17.984;2024-01-16T00:34:22;97936.00;;;-0.40
69590;BMP180;56792;50.644;17.984;2024-01-16T00:36:53;97934.40;;;-0.40
69590;BMP180;56792;50.644;17.984;2024-01-16T00:39:24;97936.80;;;-0.40
69590;BMP180;56792;50.644;17.984;2024-01-16T00:41:55;97937.60;;;-0.40
69590;BMP180;56792;50.644;17.984;2024-01-16T00:44:26;97942.00;;;-0.40
69590;BMP180;56792;50.644;17.984;2024-01-16T00:46:57;97939.00;;;-0.40
69590;BMP180;56792;50.644;17.984;2024-01-16T00:49:31;97946.40;;;-0.32
69590;BMP180;56792;50.644;17.984;2024-01-16T00:52:02;97945.20;;;-0.30
69590;BMP180;56792;50.644;17.984;2024-01-16T00:54:33;97945.20;;;-0.30
69590;BMP180;56792;50.644;17.984;2024-01-16T00:57:05;97942.80;;;-0.30
69590;BMP180;56792;50.644;17.984;2024-01-16T00:59:36;97949.00;;;-0.30
69590;BMP180;56792;50.644;17.984;2024-01-16T01:02:07;97949.40;;;-0.28
69590;BMP180;56792;50.644;17.984;2024-01-16T01:04:39;97950.20;;;-0.24
69590;BMP180;56792;50.644;17.984;2024-01-16T01:07:14;97948.60;;;-0.30
69590;BMP180;56792;50.644;17.984;2024-01-16T01:09:45;97953.60;;;-0.30
69590;BMP180;56792;50.644;17.984;2024-01-16T01:12:16;97950.60;;;-0.30
69590;BMP180;56792;50.644;17.984;2024-01-16T01:14:47;97952.80;;;-0.30
69590;BMP180;56792;50.644;17.984;2024-01-16T01:17:18;97953.80;;;-0.30
69590;BMP180;56792;50.644;17.984;2024-01-16T01:19:49;97956.00;;;-0.30
69590;BMP180;56792;50.644;17.984;2024-01-16T01:22:20;97956.80;;;-0.30
69590;BMP180;56792;50.644;17.984;2024-01-16T01:24:51;97963.80;;;-0.30
69590;BMP180;56792;50.644;17.984;2024-01-16T01:27:22;97967.40;;;-0.30
69590;BMP180;56792;50.644;17.984;2024-01-16T01:29:53;97967.00;;;-0.40
69590;BMP180;56792;50.644;17.984;2024-01-16T01:32:25;97971.40;;;-0.46
69590;BMP180;56792;50.644;17.984;2024-01-16T01:34:56;97975.00;;;-0.50
69590;BMP180;56792;50.644;17.984;2024-01-16T01:37:27;97979.00;;;-0.60
69590;BMP180;56792;50.644;17.984;2024-01-16T01:39:59;97975.80;;;-0.66
69590;BMP180;56792;50.644;17.984;2024-01-16T01:42:30;97980.40;;;-0.70
69590;BMP180;56792;50.644;17.984;2024-01-16T01:45:01;97980.40;;;-0.80
69590;BMP180;56792;50.644;17.984;2024-01-16T01:47:34;97981.60;;;-0.80
69590;BMP180;56792;50.644;17.984;2024-01-16T01:50:08;97980.60;;;-0.90
69590;BMP180;56792;50.644;17.984;2024-01-16T01:52:41;97977.40;;;-0.90
69590;BMP180;56792;50.644;17.984;2024-01-16T01:55:14;97978.60;;;-0.90
69590;BMP180;56792;50.644;17.984;2024-01-16T01:57:46;97984.20;;;-0.90
69590;BMP180;56792;50.644;17.984;2024-01-16T02:00:18;97985.80;;;-0.90
69590;BMP180;56792;50.644;17.984;2024-01-16T02:02:49;97997.00;;;-0.90
69590;BMP180;56792;50.644;17.984;2024-01-16T02:05:23;98007.60;;;-0.90
69590;BMP180;56792;50.644;17.984;2024-01-16T02:07:55;98007.00;;;-0.92
69590;BMP180;56792;50.644;17.984;2024-01-16T02:10:27;98010.60;;;-0.98
69590;BMP180;56792;50.644;17.984;2024-01-16T02:12:58;98017.20;;;-0.96
69590;BMP180;56792;50.644;17.984;2024-01-16T02:15:29;98010.80;;;-0.94
69590;BMP180;56792;50.644;17.984;2024-01-16T02:18:01;98013.80;;;-0.94
69590;BMP180;56792;50.644;17.984;2024-01-16T02:20:32;98023.40;;;-0.94
69590;BMP180;56792;50.644;17.984;2024-01-16T02:23:06;98030.60;;;-0.94
69590;BMP180;56792;50.644;17.984;2024-01-16T02:25:38;98044.60;;;-0.90
69590;BMP180;56792;50.644;17.984;2024-01-16T02:28:09;98047.20;;;-0.92
69590;BMP180;56792;50.644;17.984;2024-01-16T02:30:43;98047.80;;;-0.90
69590;BMP180;56792;50.644;17.984;2024-01-16T02:33:14;98052.40;;;-0.94
69590;BMP180;56792;50.644;17.984;2024-01-16T02:35:45;98053.80;;;-0.90
69590;BMP180;56792;50.644;17.984;2024-01-16T02:38:16;98060.00;;;-0.96
69590;BMP180;56792;50.644;17.984;2024-01-16T02:40:47;98070.20;;;-0.90
69590;BMP180;56792;50.644;17.984;2024-01-16T02:43:18;98067.60;;;-0.90
69590;BMP180;56792;50.644;17.984;2024-01-16T02:45:49;98084.60;;;-0.90
69590;BMP180;56792;50.644;17.984;2024-01-16T02:48:21;98097.00;;;-0.90
69590;BMP180;56792;50.644;17.984;2024-01-16T02:50:53;98114.00;;;-1.00
69590;BMP180;56792;50.644;17.984;2024-01-16T02:53:24;98129.80;;;-1.06
69590;BMP180;56792;50.644;17.984;2024-01-16T02:55:56;98134.00;;;-1.10
69590;BMP180;56792;50.644;17.984;2024-01-16T02:58:29;98135.80;;;-1.20
69590;BMP180;56792;50.644;17.984;2024-01-16T03:01:01;98136.80;;;-1.20
69590;BMP180;56792;50.644;17.984;2024-01-16T03:03:32;98140.40;;;-1.28
69590;BMP180;56792;50.644;17.984;2024-01-16T03:06:03;98133.20;;;-1.30
69590;BMP180;56792;50.644;17.984;2024-01-16T03:08:35;98133.60;;;-1.30
69590;BMP180;56792;50.644;17.984;2024-01-16T03:11:06;98141.80;;;-1.40
69590;BMP180;56792;50.644;17.984;2024-01-16T03:13:37;98153.40;;;-1.40
69590;BMP180;56792;50.644;17.984;2024-01-16T03:16:11;98156.80;;;-1.44
69590;BMP180;56792;50.644;17.984;2024-01-16T03:18:42;98158.00;;;-1.48
69590;BMP180;56792;50.644;17.984;2024-01-16T03:21:14;98160.00;;;-1.50
69590;BMP180;56792;50.644;17.984;2024-01-16T03:23:45;98168.60;;;-1.50
69590;BMP180;56792;50.644;17.984;2024-01-16T03:26:17;98167.20;;;-1.50
69590;BMP180;56792;50.644;17.984;2024-01-16T03:28:48;98177.20;;;-1.50
69590;BMP180;56792;50.644;17.984;2024-01-16T03:31:19;98166.80;;;-1.50
69590;BMP180;56792;50.644;17.984;2024-01-16T03:33:51;98161.20;;;-1.58
69590;BMP180;56792;50.644;17.984;2024-01-16T03:36:22;98154.60;;;-1.60
69590;BMP180;56792;50.644;17.984;2024-01-16T03:38:53;98142.20;;;-1.60
69590;BMP180;56792;50.644;17.984;2024-01-16T03:41:24;98152.00;;;-1.60
69590;BMP180;56792;50.644;17.984;2024-01-16T03:43:55;98159.80;;;-1.60
69590;BMP180;56792;50.644;17.984;2024-01-16T03:46:27;98157.80;;;-1.60
69590;BMP180;56792;50.644;17.984;2024-01-16T03:48:58;98160.20;;;-1.68
69590;BMP180;56792;50.644;17.984;2024-01-16T03:51:29;98168.60;;;-1.62
69590;BMP180;56792;50.644;17.984;2024-01-16T03:54:00;98175.20;;;-1.60
69590;BMP180;56792;50.644;17.984;2024-01-16T03:56:31;98177.20;;;-1.60
69590;BMP180;56792;50.644;17.984;2024-01-16T03:59:02;98183.60;;;-1.60
69590;BMP180;56792;50.644;17.984;2024-01-16T04:01:34;98190.80;;;-1.60
69590;BMP180;56792;50.644;17.984;2024-01-16T04:04:06;98195.00;;;-1.60
69590;BMP180;56792;50.644;17.984;2024-01-16T04:06:37;98193.20;;;-1.58
69590;BMP180;56792;50.644;17.984;2024-01-16T04:09:09;98198.60;;;-1.56
69590;BMP180;56792;50.644;17.984;2024-01-16T04:11:40;98198.20;;;-1.54
69590;BMP180;56792;50.644;17.984;2024-01-16T04:14:11;98199.00;;;-1.50
69590;BMP180;56792;50.644;17.984;2024-01-16T04:16:42;98204.20;;;-1.52
69590;BMP180;56792;50.644;17.984;2024-01-16T04:19:13;98217.40;;;-1.60
69590;BMP180;56792;50.644;17.984;2024-01-16T04:21:44;98223.80;;;-1.60
69590;BMP180;56792;50.644;17.984;2024-01-16T04:24:16;98221.80;;;-1.60
69590;BMP180;56792;50.644;17.984;2024-01-16T04:26:47;98226.80;;;-1.60
69590;BMP180;56792;50.644;17.984;2024-01-16T04:29:18;98229.80;;;-1.60
69590;BMP180;56792;50.644;17.984;2024-01-16T04:31:49;98222.20;;;-1.60
69590;BMP180;56792;50.644;17.984;2024-01-16T04:34:20;98221.20;;;-1.62
69590;BMP180;56792;50.644;17.984;2024-01-16T04:36:51;98226.00;;;-1.66
69590;BMP180;56792;50.644;17.984;2024-01-16T04:39:22;98231.60;;;-1.66
69590;BMP180;56792;50.644;17.984;2024-01-16T04:41:53;98225.00;;;-1.70
69590;BMP180;56792;50.644;17.984;2024-01-16T04:44:24;98225.80;;;-1.68
69590;BMP180;56792;50.644;17.984;2024-01-16T04:46:56;98222.80;;;-1.70
69590;BMP180;56792;50.644;17.984;2024-01-16T04:49:27;98227.00;;;-1.70
69590;BMP180;56792;50.644;17.984;2024-01-16T04:51:59;98230.00;;;-1.70
69590;BMP180;56792;50.644;17.984;2024-01-16T04:54:30;98238.00;;;-1.70
69590;BMP180;56792;50.644;17.984;2024-01-16T04:57:02;98241.00;;;-1.70
69590;BMP180;56792;50.644;17.984;2024-01-16T04:59:34;98242.00;;;-1.70
69590;BMP180;56792;50.644;17.984;2024-01-16T05:02:05;98244.20;;;-1.74
69590;BMP180;56792;50.644;17.984;2024-01-16T05:04:39;98245.60;;;-1.76
69590;BMP180;56792;50.644;17.984;2024-01-16T05:07:10;98252.00;;;-1.80
69590;BMP180;56792;50.644;17.984;2024-01-16T05:09:41;98249.00;;;-1.80
69590;BMP180;56792;50.644;17.984;2024-01-16T05:12:12;98251.80;;;-1.90
69590;BMP180;56792;50.644;17.984;2024-01-16T05:14:44;98256.80;;;-1.90
69590;BMP180;56792;50.644;17.984;2024-01-16T05:17:15;98253.80;;;-1.90
69590;BMP180;56792;50.644;17.984;2024-01-16T05:19:46;98255.20;;;-1.90
69590;BMP180;56792;50.644;17.984;2024-01-16T05:22:17;98256.20;;;-1.94
69590;BMP180;56792;50.644;17.984;2024-01-16T05:24:48;98259.20;;;-1.90
69590;BMP180;56792;50.644;17.984;2024-01-16T05:27:19;98266.20;;;-1.90
69590;BMP180;56792;50.644;17.984;2024-01-16T05:29:50;98281.20;;;-1.90
69590;BMP180;56792;50.644;17.984;2024-01-16T05:32:21;98279.40;;;-1.96
69590;BMP180;56792;50.644;17.984;2024-01-16T05:34:53;98287.40;;;-1.98
69590;BMP180;56792;50.644;17.984;2024-01-16T05:37:24;98291.60;;;-2.00
69590;BMP180;56792;50.644;17.984;2024-01-16T05:39:55;98298.80;;;-2.00
69590;BMP180;56792;50.644;17.984;2024-01-16T05:42:27;98301.60;;;-2.00
69590;BMP180;56792;50.644;17.984;2024-01-16T05:44:58;98295.00;;;-2.00
69590;BMP180;56792;50.644;17.984;2024-01-16T05:47:29;98292.20;;;-2.06
69590;BMP180;56792;50.644;17.984;2024-01-16T05:50:00;98290.00;;;-2.08
69590;BMP180;56792;50.644;17.984;2024-01-16T05:52:31;98295.00;;;-2.10
69590;BMP180;56792;50.644;17.984;2024-01-16T05:55:03;98295.00;;;-2.10
69590;BMP180;56792;50.644;17.984;2024-01-16T05:57:34;98295.60;;;-2.10
69590;BMP180;56792;50.644;17.984;2024-01-16T06:00:09;98304.40;;;-2.10
69590;BMP180;56792;50.644;17.984;2024-01-16T06:02:40;98299.60;;;-2.10
69590;BMP180;56792;50.644;17.984;2024-01-16T06:05:12;98304.80;;;-2.10
69590;BMP180;56792;50.644;17.984;2024-01-16T06:07:43;98304.40;;;-2.20
69590;BMP180;56792;50.644;17.984;2024-01-16T06:10:16;98313.00;;;-2.20
69590;BMP180;56792;50.644;17.984;2024-01-16T06:12:47;98321.00;;;-2.20
69590;BMP180;56792;50.644;17.984;2024-01-16T06:15:18;98327.80;;;-2.30
69590;BMP180;56792;50.644;17.984;2024-01-16T06:17:50;98337.60;;;-2.30
69590;BMP180;56792;50.644;17.984;2024-01-16T06:20:21;98341.20;;;-2.30
69590;BMP180;56792;50.644;17.984;2024-01-16T06:22:53;98335.80;;;-2.30
69590;BMP180;56792;50.644;17.984;2024-01-16T06:25:24;98334.00;;;-2.30
69590;BMP180;56792;50.644;17.984;2024-01-16T06:27:55;98331.60;;;-2.30
69590;BMP180;56792;50.644;17.984;2024-01-16T06:30:27;98335.80;;;-2.30
69590;BMP180;56792;50.644;17.984;2024-01-16T06:32:58;98337.80;;;-2.30
69590;BMP180;56792;50.644;17.984;2024-01-16T06:35:29;98346.80;;;-2.22
69590;BMP180;56792;50.644;17.984;2024-01-16T06:38:00;98348.00;;;-2.20
69590;BMP180;56792;50.644;17.984;2024-01-16T06:40:32;98350.20;;;-2.20
69590;BMP180;56792;50.644;17.984;2024-01-16T06:43:03;98347.80;;;-2.20
69590;BMP180;56792;50.644;17.984;2024-01-16T06:45:35;98339.20;;;-2.20
69590;BMP180;56792;50.644;17.984;2024-01-16T06:48:07;98348.20;;;-2.20
69590;BMP180;56792;50.644;17.984;2024-01-16T06:50:38;98354.40;;;-2.20
69590;BMP180;56792;50.644;17.984;2024-01-16T06:53:09;98354.20;;;-2.20
69590;BMP180;56792;50.644;17.984;2024-01-16T06:55:40;98355.00;;;-2.10
69590;BMP180;56792;50.644;17.984;2024-01-16T06:58:11;98362.60;;;-2.10
69590;BMP180;56792;50.644;17.984;2024-01-16T07:00:42;98362.00;;;-2.10
69590;BMP180;56792;50.644;17.984;2024-01-16T07:03:14;98369.20;;;-2.10
69590;BMP180;56792;50.644;17.984;2024-01-16T07:05:46;98377.40;;;-2.00
69590;BMP180;56792;50.644;17.984;2024-01-16T07:08:18;98379.80;;;-2.00
69590;BMP180;56792;50.644;17.984;2024-01-16T07:10:50;98381.20;;;-1.90
69590;BMP180;56792;50.644;17.984;2024-01-16T07:13:21;98379.00;;;-1.90
69590;BMP180;56792;50.644;17.984;2024-01-16T07:15:52;98383.40;;;-1.90
69590;BMP180;56792;50.644;17.984;2024-01-16T07:18:23;98385.20;;;-1.80
69590;BMP180;56792;50.644;17.984;2024-01-16T07:20:54;98386.40;;;-1.80
69590;BMP180;56792;50.644;17.984;2024-01-16T07:23:25;98385.40;;;-1.70
69590;BMP180;56792;50.644;17.984;2024-01-16T07:25:57;98385.60;;;-1.60
69590;BMP180;56792;50.644;17.984;2024-01-16T07:28:28;98387.40;;;-1.50
69590;BMP180;56792;50.644;17.984;2024-01-16T07:30:59;98389.60;;;-1.30
69590;BMP180;56792;50.644;17.984;2024-01-16T07:33:30;98394.80;;;-1.20
69590;BMP180;56792;50.644;17.984;2024-01-16T07:36:01;98404.00;;;-1.10
69590;BMP180;56792;50.644;17.984;2024-01-16T07:38:32;98405.80;;;-1.00
69590;BMP180;56792;50.644;17.984;2024-01-16T07:41:03;98414.00;;;-1.00
69590;BMP180;56792;50.644;17.984;2024-01-16T07:43:35;98421.20;;;-1.00
69590;BMP180;56792;50.644;17.984;2024-01-16T07:46:06;98430.60;;;-1.00
69590;BMP180;56792;50.644;17.984;2024-01-16T07:48:37;98428.60;;;-0.94
69590;BMP180;56792;50.644;17.984;2024-01-16T07:51:09;98431.00;;;-0.90
69590;BMP180;56792;50.644;17.984;2024-01-16T07:53:40;98432.60;;;-0.90
69590;BMP180;56792;50.644;17.984;2024-01-16T07:56:11;98440.00;;;-0.90
69590;BMP180;56792;50.644;17.984;2024-01-16T07:58:42;98440.40;;;-0.90
69590;BMP180;56792;50.644;17.984;2024-01-16T08:01:13;98449.20;;;-0.90
69590;BMP180;56792;50.644;17.984;2024-01-16T08:03:44;98456.20;;;-0.80
69590;BMP180;56792;50.644;17.984;2024-01-16T08:06:16;98459.00;;;-0.80
69590;BMP180;56792;50.644;17.984;2024-01-16T08:08:47;98463.20;;;-0.80
69590;BMP180;56792;50.644;17.984;2024-01-16T08:11:19;98468.80;;;-0.70
69590;BMP180;56792;50.644;17.984;2024-01-16T08:13:51;98474.00;;;-0.50
69590;BMP180;56792;50.644;17.984;2024-01-16T08:16:22;98480.00;;;-0.46
69590;BMP180;56792;50.644;17.984;2024-01-16T08:18:53;98483.00;;;-0.50
69590;BMP180;56792;50.644;17.984;2024-01-16T08:21:24;98489.40;;;-0.50
69590;BMP180;56792;50.644;17.984;2024-01-16T08:23:56;98498.40;;;-0.58
69590;BMP180;56792;50.644;17.984;2024-01-16T08:26:27;98504.20;;;-0.60
69590;BMP180;56792;50.644;17.984;2024-01-16T08:28:58;98502.40;;;-0.60
69590;BMP180;56792;50.644;17.984;2024-01-16T08:31:29;98510.20;;;-0.70
69590;BMP180;56792;50.644;17.984;2024-01-16T08:34:01;98506.40;;;-0.76
69590;BMP180;56792;50.644;17.984;2024-01-16T08:36:32;98514.00;;;-0.80
69590;BMP180;56792;50.644;17.984;2024-01-16T08:39:04;98512.60;;;-0.90
69590;BMP180;56792;50.644;17.984;2024-01-16T08:41:35;98513.20;;;-0.90
69590;BMP180;56792;50.644;17.984;2024-01-16T08:44:07;98516.80;;;-0.90
69590;BMP180;56792;50.644;17.984;2024-01-16T08:46:38;98517.20;;;-0.90
69590;BMP180;56792;50.644;17.984;2024-01-16T08:49:09;98525.00;;;-0.90
69590;BMP180;56792;50.644;17.984;2024-01-16T08:51:41;98526.80;;;-0.88
69590;BMP180;56792;50.644;17.984;2024-01-16T08:54:12;98530.40;;;-0.82
69590;BMP180;56792;50.644;17.984;2024-01-16T08:56:43;98530.40;;;-0.80
69590;BMP180;56792;50.644;17.984;2024-01-16T08:59:15;98537.60;;;-0.62
69590;BMP180;56792;50.644;17.984;2024-01-16T09:01:46;98549.60;;;-0.60
69590;BMP180;56792;50.644;17.984;2024-01-16T09:04:17;98557.00;;;-0.42
69590;BMP180;56792;50.644;17.984;2024-01-16T09:06:48;98563.80;;;-0.30
69590;BMP180;56792;50.644;17.984;2024-01-16T09:09:20;98562.60;;;-0.40
69590;BMP180;56792;50.644;17.984;2024-01-16T09:11:51;98561.00;;;-0.40
69590;BMP180;56792;50.644;17.984;2024-01-16T09:14:22;98571.20;;;-0.30
69590;BMP180;56792;50.644;17.984;2024-01-16T09:16:53;98565.60;;;-0.30
69590;BMP180;56792;50.644;17.984;2024-01-16T09:19:25;98571.60;;;-0.20
69590;BMP180;56792;50.644;17.984;2024-01-16T09:21:56;98568.80;;;0.00
69590;BMP180;56792;50.644;17.984;2024-01-16T09:24:27;98569.60;;;0.00
69590;BMP180;56792;50.644;17.984;2024-01-16T09:26:58;98566.60;;;0.00
69590;BMP180;56792;50.644;17.984;2024-01-16T09:29:29;98577.00;;;-0.12
69590;BMP180;56792;50.644;17.984;2024-01-16T09:32:00;98580.80;;;-0.20
69590;BMP180;56792;50.644;17.984;2024-01-16T09:34:31;98585.80;;;-0.26
69590;BMP180;56792;50.644;17.984;2024-01-16T09:37:03;98590.20;;;-0.22
69590;BMP180;56792;50.644;17.984;2024-01-16T09:39:34;98591.80;;;-0.20
69590;BMP180;56792;50.644;17.984;2024-01-16T09:42:08;98595.80;;;-0.20
69590;BMP180;56792;50.644;17.984;2024-01-16T09:44:39;98600.40;;;-0.20
69590;BMP180;56792;50.644;17.984;2024-01-16T09:47:11;98600.00;;;-0.22
69590;BMP180;56792;50.644;17.984;2024-01-16T09:49:43;98606.60;;;-0.30
69590;BMP180;56792;50.644;17.984;2024-01-16T09:52:17;98602.60;;;-0.30
69590;BMP180;56792;50.644;17.984;2024-01-16T09:54:48;98603.20;;;-0.30
69590;BMP180;56792;50.644;17.984;2024-01-16T09:57:26;98605.80;;;-0.30
69590;BMP180;56792;50.644;17.984;2024-01-16T09:59:57;98610.60;;;-0.24
69590;BMP180;56792;50.644;17.984;2024-01-16T10:02:37;98610.20;;;-0.20
69590;BMP180;56792;50.644;17.984;2024-01-16T10:05:09;98612.00;;;-0.20
69590;BMP180;56792;50.644;17.984;2024-01-16T10:07:43;98607.40;;;-0.20
69590;BMP180;56792;50.644;17.984;2024-01-16T10:10:15;98610.40;;;-0.16
69590;BMP180;56792;50.644;17.984;2024-01-16T10:12:47;98613.80;;;-0.10
69590;BMP180;56792;50.644;17.984;2024-01-16T10:15:23;98617.00;;;-0.10
69590;BMP180;56792;50.644;17.984;2024-01-16T10:17:54;98623.20;;;-0.20
69590;BMP180;56792;50.644;17.984;2024-01-16T10:20:36;98628.40;;;-0.20
69590;BMP180;56792;50.644;17.984;2024-01-16T10:23:07;98628.40;;;-0.30
69590;BMP180;56792;50.644;17.984;2024-01-16T10:25:38;98632.00;;;-0.30
69590;BMP180;56792;50.644;17.984;2024-01-16T10:28:09;98628.80;;;-0.30
69590;BMP180;56792;50.644;17.984;2024-01-16T10:30:41;98635.40;;;-0.22
69590;BMP180;56792;50.644;17.984;2024-01-16T10:33:17;98638.20;;;-0.16
69590;BMP180;56792;50.644;17.984;2024-01-16T10:35:48;98640.40;;;-0.10
69590;BMP180;56792;50.644;17.984;2024-01-16T10:38:24;98644.60;;;-0.10
69590;BMP180;56792;50.644;17.984;2024-01-16T10:41:10;98649.80;;;-0.08
69590;BMP180;56792;50.644;17.984;2024-01-16T10:43:42;98644.40;;;0.00
69590;BMP180;56792;50.644;17.984;2024-01-16T10:46:16;98646.60;;;0.26
69590;BMP180;56792;50.644;17.984;2024-01-16T10:49:02;98651.00;;;0.40
69590;BMP180;56792;50.644;17.984;2024-01-16T10:51:34;98653.40;;;0.30
69590;BMP180;56792;50.644;17.984;2024-01-16T10:54:06;98658.00;;;0.30
69590;BMP180;56792;50.644;17.984;2024-01-16T10:56:39;98658.40;;;0.30
69590;BMP180;56792;50.644;17.984;2024-01-16T10:59:18;98656.40;;;0.44
69590;BMP180;56792;50.644;17.984;2024-01-16T11:01:56;98660.20;;;0.82
69590;BMP180;56792;50.644;17.984;2024-01-16T11:04:30;98656.20;;;1.10
69590;BMP180;56792;50.644;17.984;2024-01-16T11:07:03;98663.20;;;1.64
69590;BMP180;56792;50.644;17.984;2024-01-16T11:09:35;98660.80;;;2.00
69590;BMP180;56792;50.644;17.984;2024-01-16T11:12:09;98665.00;;;2.00
69590;BMP180;56792;50.644;17.984;2024-01-16T11:14:49;98663.20;;;2.40
69590;BMP180;56792;50.644;17.984;2024-01-16T11:17:23;98664.80;;;2.80
69590;BMP180;56792;50.644;17.984;2024-01-16T11:19:54;98660.80;;;3.06
69590;BMP180;56792;50.644;17.984;2024-01-16T11:22:26;98661.20;;;2.56
69590;BMP180;56792;50.644;17.984;2024-01-16T11:25:16;98669.60;;;2.30
69590;BMP180;56792;50.644;17.984;2024-01-16T11:27:49;98673.60;;;2.00
69590;BMP180;56792;50.644;17.984;2024-01-16T11:30:32;98670.00;;;1.90
69590;BMP180;56792;50.644;17.984;2024-01-16T11:33:03;98671.00;;;1.60
69590;BMP180;56792;50.644;17.984;2024-01-16T11:35:37;98670.60;;;1.40
69590;BMP180;56792;50.644;17.984;2024-01-16T11:38:13;98672.80;;;1.32
69590;BMP180;56792;50.644;17.984;2024-01-16T11:40:46;98673.20;;;1.20
69590;BMP180;56792;50.644;17.984;2024-01-16T11:43:38;98674.00;;;1.00
69590;BMP180;56792;50.644;17.984;2024-01-16T11:46:09;98671.80;;;0.80
69590;BMP180;56792;50.644;17.984;2024-01-16T11:48:41;98670.00;;;0.70
69590;BMP180;56792;50.644;17.984;2024-01-16T11:51:28;98670.40;;;0.70
69590;BMP180;56792;50.644;17.984;2024-01-16T11:54:00;98668.60;;;0.70
69590;BMP180;56792;50.644;17.984;2024-01-16T11:57:08;98670.20;;;0.72
69590;BMP180;56792;50.644;17.984;2024-01-16T12:00:01;98672.80;;;0.76
69590;BMP180;56792;50.644;17.984;2024-01-16T12:02:53;98680.20;;;0.60
69590;BMP180;56792;50.644;17.984;2024-01-16T12:05:24;98674.60;;;0.50
69590;BMP180;56792;50.644;17.984;2024-01-16T12:07:56;98678.60;;;0.50
69590;BMP180;56792;50.644;17.984;2024-01-16T12:10:28;98681.80;;;0.40
69590;BMP180;56792;50.644;17.984;2024-01-16T12:13:01;98678.60;;;0.30
69590;BMP180;56792;50.644;17.984;2024-01-16T12:15:32;98685.60;;;0.26
69590;BMP180;56792;50.644;17.984;2024-01-16T12:18:04;98688.80;;;0.20
69590;BMP180;56792;50.644;17.984;2024-01-16T12:20:37;98687.60;;;0.20
69590;BMP180;56792;50.644;17.984;2024-01-16T12:23:09;98683.80;;;0.26
69590;BMP180;56792;50.644;17.984;2024-01-16T12:25:40;98685.80;;;0.30
69590;BMP180;56792;50.644;17.984;2024-01-16T12:28:12;98679.20;;;0.30
69590;BMP180;56792;50.644;17.984;2024-01-16T12:30:51;98684.20;;;0.38
69590;BMP180;56792;50.644;17.984;2024-01-16T12:33:24;98685.40;;;0.30
69590;BMP180;56792;50.644;17.984;2024-01-16T12:36:04;98684.60;;;0.30
69590;BMP180;56792;50.644;17.984;2024-01-16T12:38:36;98691.80;;;0.20
69590;BMP180;56792;50.644;17.984;2024-01-16T12:41:11;98695.40;;;0.20
69590;BMP180;56792;50.644;17.984;2024-01-16T12:43:43;98701.40;;;0.20
69590;BMP180;56792;50.644;17.984;2024-01-16T12:46:15;98696.80;;;0.28
69590;BMP180;56792;50.644;17.984;2024-01-16T12:48:49;98698.60;;;0.30
69590;BMP180;56792;50.644;17.984;2024-01-16T12:51:24;98704.40;;;0.20
69590;BMP180;56792;50.644;17.984;2024-01-16T12:53:55;98711.60;;;0.10
69590;BMP180;56792;50.644;17.984;2024-01-16T12:56:40;98713.60;;;0.10
69590;BMP180;56792;50.644;17.984;2024-01-16T12:59:15;98710.00;;;0.00
69590;BMP180;56792;50.644;17.984;2024-01-16T13:01:47;98717.40;;;-0.10
69590;BMP180;56792;50.644;17.984;2024-01-16T13:04:20;98721.80;;;-0.14
69590;BMP180;56792;50.644;17.984;2024-01-16T13:06:51;98720.20;;;-0.20
69590;BMP180;56792;50.644;17.984;2024-01-16T13:09:31;98725.80;;;-0.20
69590;BMP180;56792;50.644;17.984;2024-01-16T13:12:02;98733.40;;;-0.28
69590;BMP180;56792;50.644;17.984;2024-01-16T13:14:33;98733.20;;;-0.26
69590;BMP180;56792;50.644;17.984;2024-01-16T13:17:06;98733.60;;;-0.20
69590;BMP180;56792;50.644;17.984;2024-01-16T13:19:38;98734.60;;;-0.20
69590;BMP180;56792;50.644;17.984;2024-01-16T13:22:11;98733.20;;;-0.20
69590;BMP180;56792;50.644;17.984;2024-01-16T13:24:42;98739.00;;;-0.20
69590;BMP180;56792;50.644;17.984;2024-01-16T13:27:13;98741.40;;;-0.10
69590;BMP180;56792;50.644;17.984;2024-01-16T13:29:45;98748.00;;;-0.10
69590;BMP180;56792;50.644;17.984;2024-01-16T13:32:16;98754.40;;;0.02
69590;BMP180;56792;50.644;17.984;2024-01-16T13:34:47;98755.20;;;0.10
69590;BMP180;56792;50.644;17.984;2024-01-16T13:37:22;98758.80;;;0.10
69590;BMP180;56792;50.644;17.984;2024-01-16T13:39:53;98766.60;;;0.10
69590;BMP180;56792;50.644;17.984;2024-01-16T13:42:25;98763.20;;;0.10
69590;BMP180;56792;50.644;17.984;2024-01-16T13:44:56;98763.60;;;0.20
69590;BMP180;56792;50.644;17.984;2024-01-16T13:47:27;98767.40;;;0.30
69590;BMP180;56792;50.644;17.984;2024-01-16T13:49:58;98774.80;;;0.20
69590;BMP180;56792;50.644;17.984;2024-01-16T13:52:29;98763.40;;;0.00
69590;BMP180;56792;50.644;17.984;2024-01-16T13:55:00;98771.60;;;-0.08
69590;BMP180;56792;50.644;17.984;2024-01-16T13:57:34;98775.00;;;-0.10
69590;BMP180;56792;50.644;17.984;2024-01-16T14:00:07;98781.80;;;-0.20
69590;BMP180;56792;50.644;17.984;2024-01-16T14:02:44;98786.60;;;-0.20
69590;BMP180;56792;50.644;17.984;2024-01-16T14:05:16;98797.00;;;-0.20
69590;BMP180;56792;50.644;17.984;2024-01-16T14:07:49;98802.00;;;-0.20
69590;BMP180;56792;50.644;17.984;2024-01-16T14:10:23;98803.40;;;-0.20
69590;BMP180;56792;50.644;17.984;2024-01-16T14:12:55;98804.80;;;-0.20
69590;BMP180;56792;50.644;17.984;2024-01-16T14:15:26;98803.00;;;-0.30
69590;BMP180;56792;50.644;17.984;2024-01-16T14:17:57;98801.60;;;-0.40
69590;BMP180;56792;50.644;17.984;2024-01-16T14:20:29;98799.00;;;-0.50
69590;BMP180;56792;50.644;17.984;2024-01-16T14:23:00;98800.60;;;-0.60
69590;BMP180;56792;50.644;17.984;2024-01-16T14:25:31;98800.20;;;-0.66
69590;BMP180;56792;50.644;17.984;2024-01-16T14:28:04;98803.20;;;-0.70